KENV/ENV METAR and TAF weather

Enter ICAO airport designator
Station Type Date Time Source
KENV METAR 2022/06/30 12:56 UTC NOAA

KENV 301256Z AUTO 00000KT 10SM FEW120 21/00 A3008 RMK AO2 SLP137 T02110000


Station Type Date Time Source
KENV Decoded METAR 2022/06/30 12:56 UTC NOAA

Wendover / Air Force Auxillary Field, UT, United States (KENV) 40-44N 114-02W 1292M
Jun 30, 2022 - 08:56 AM EDT / 2022.06.30 1256 UTC
Wind: Calm:0
Visibility: 10 mile(s):0
Sky conditions: mostly clear
Temperature: 70.0 F (21.1 C)
Dew Point: 32.0 F (0.0 C)
Relative Humidity: 24%
Pressure (altimeter): 30.08 in. Hg (1018 hPa)
ob: KENV 301256Z AUTO 00000KT 10SM FEW120 21/00 A3008 RMK AO2 SLP137 T02110000
cycle: 13

Station Type Date Time Source
KENV TAF 2022/06/30 12:22 UTC NOAA

TAF KENV 301120Z 3012/0112 35006KT P6SM SCT150
FM301700 12007KT P6SM FEW150
FM010200 VRB04KT P6SM FEW150

Example: see airport list